sensor_id;sensor_type;location;lat;lon;timestamp;P1;durP1;ratioP1;P2;durP2;ratioP2
2772;SDS011;1394;47.044;15.744;2023-07-30T00:00:57;24.50;;;0.97;;
2772;SDS011;1394;47.044;15.744;2023-07-30T00:09:28;24.40;;;0.90;;
2772;SDS011;1394;47.044;15.744;2023-07-30T00:11:56;24.40;;;1.00;;
2772;SDS011;1394;47.044;15.744;2023-07-30T00:14:27;24.20;;;0.80;;
2772;SDS011;1394;47.044;15.744;2023-07-30T00:16:56;24.40;;;1.00;;
2772;SDS011;1394;47.044;15.744;2023-07-30T00:19:24;24.50;;;0.80;;
2772;SDS011;1394;47.044;15.744;2023-07-30T00:21:51;24.43;;;0.97;;
2772;SDS011;1394;47.044;15.744;2023-07-30T00:24:18;24.50;;;0.80;;
2772;SDS011;1394;47.044;15.744;2023-07-30T00:26:46;24.57;;;0.90;;
2772;SDS011;1394;47.044;15.744;2023-07-30T00:29:15;24.77;;;1.00;;
2772;SDS011;1394;47.044;15.744;2023-07-30T00:31:45;24.57;;;1.20;;
2772;SDS011;1394;47.044;15.744;2023-07-30T00:34:14;24.37;;;0.77;;
2772;SDS011;1394;47.044;15.744;2023-07-30T00:36:41;24.30;;;0.83;;
2772;SDS011;1394;47.044;15.744;2023-07-30T00:39:09;24.20;;;0.70;;
2772;SDS011;1394;47.044;15.744;2023-07-30T00:41:38;24.50;;;0.90;;
2772;SDS011;1394;47.044;15.744;2023-07-30T00:44:06;24.10;;;0.70;;
2772;SDS011;1394;47.044;15.744;2023-07-30T00:46:33;24.40;;;0.80;;
2772;SDS011;1394;47.044;15.744;2023-07-30T00:49:01;27.40;;;1.00;;
2772;SDS011;1394;47.044;15.744;2023-07-30T00:51:43;24.87;;;0.80;;
2772;SDS011;1394;47.044;15.744;2023-07-30T00:54:10;24.37;;;0.80;;
2772;SDS011;1394;47.044;15.744;2023-07-30T00:56:38;24.43;;;1.00;;
2772;SDS011;1394;47.044;15.744;2023-07-30T00:59:09;25.13;;;1.00;;
2772;SDS011;1394;47.044;15.744;2023-07-30T01:01:37;24.20;;;0.80;;
2772;SDS011;1394;47.044;15.744;2023-07-30T01:04:06;24.37;;;0.93;;
2772;SDS011;1394;47.044;15.744;2023-07-30T01:06:34;24.50;;;0.90;;
2772;SDS011;1394;47.044;15.744;2023-07-30T01:09:02;24.40;;;0.90;;
2772;SDS011;1394;47.044;15.744;2023-07-30T01:11:30;24.23;;;0.80;;
2772;SDS011;1394;47.044;15.744;2023-07-30T01:13:58;24.30;;;0.80;;
2772;SDS011;1394;47.044;15.744;2023-07-30T01:16:26;24.20;;;0.80;;
2772;SDS011;1394;47.044;15.744;2023-07-30T01:18:56;24.20;;;0.80;;
2772;SDS011;1394;47.044;15.744;2023-07-30T01:21:30;24.20;;;0.80;;
2772;SDS011;1394;47.044;15.744;2023-07-30T01:24:01;24.40;;;0.87;;
2772;SDS011;1394;47.044;15.744;2023-07-30T01:26:30;24.50;;;0.80;;
2772;SDS011;1394;47.044;15.744;2023-07-30T01:29:00;24.53;;;1.10;;
2772;SDS011;1394;47.044;15.744;2023-07-30T01:31:27;24.37;;;0.80;;
2772;SDS011;1394;47.044;15.744;2023-07-30T01:33:57;24.27;;;0.77;;
2772;SDS011;1394;47.044;15.744;2023-07-30T01:36:24;24.20;;;0.73;;
2772;SDS011;1394;47.044;15.744;2023-07-30T01:38:53;24.20;;;0.90;;
2772;SDS011;1394;47.044;15.744;2023-07-30T01:41:21;24.50;;;0.90;;
2772;SDS011;1394;47.044;15.744;2023-07-30T01:43:49;24.37;;;0.90;;
2772;SDS011;1394;47.044;15.744;2023-07-30T01:46:19;24.17;;;0.77;;
2772;SDS011;1394;47.044;15.744;2023-07-30T01:48:46;24.50;;;1.00;;
2772;SDS011;1394;47.044;15.744;2023-07-30T01:51:14;24.37;;;1.00;;
2772;SDS011;1394;47.044;15.744;2023-07-30T01:53:42;24.77;;;0.93;;
2772;SDS011;1394;47.044;15.744;2023-07-30T01:56:11;24.10;;;0.80;;
2772;SDS011;1394;47.044;15.744;2023-07-30T01:58:38;24.70;;;0.90;;
2772;SDS011;1394;47.044;15.744;2023-07-30T02:01:06;24.07;;;0.90;;
2772;SDS011;1394;47.044;15.744;2023-07-30T02:03:34;24.50;;;1.00;;
2772;SDS011;1394;47.044;15.744;2023-07-30T02:06:03;24.30;;;0.90;;
2772;SDS011;1394;47.044;15.744;2023-07-30T02:08:30;24.37;;;0.87;;
2772;SDS011;1394;47.044;15.744;2023-07-30T02:10:58;24.30;;;0.80;;
2772;SDS011;1394;47.044;15.744;2023-07-30T02:13:27;27.73;;;1.27;;
2772;SDS011;1394;47.044;15.744;2023-07-30T02:16:03;24.83;;;0.90;;
2772;SDS011;1394;47.044;15.744;2023-07-30T02:18:30;24.40;;;0.80;;
2772;SDS011;1394;47.044;15.744;2023-07-30T02:20:58;24.53;;;1.00;;
2772;SDS011;1394;47.044;15.744;2023-07-30T02:23:25;25.03;;;0.97;;
2772;SDS011;1394;47.044;15.744;2023-07-30T02:25:52;24.87;;;1.00;;
2772;SDS011;1394;47.044;15.744;2023-07-30T02:28:20;24.40;;;0.80;;
2772;SDS011;1394;47.044;15.744;2023-07-30T02:30:48;25.90;;;0.80;;
2772;SDS011;1394;47.044;15.744;2023-07-30T02:33:15;24.40;;;0.80;;
2772;SDS011;1394;47.044;15.744;2023-07-30T02:35:43;24.30;;;0.90;;
2772;SDS011;1394;47.044;15.744;2023-07-30T02:38:14;24.63;;;0.90;;
2772;SDS011;1394;47.044;15.744;2023-07-30T02:40:42;24.63;;;0.87;;
2772;SDS011;1394;47.044;15.744;2023-07-30T02:43:10;24.10;;;0.67;;
2772;SDS011;1394;47.044;15.744;2023-07-30T02:45:38;24.30;;;0.70;;
2772;SDS011;1394;47.044;15.744;2023-07-30T02:48:06;24.13;;;0.90;;
2772;SDS011;1394;47.044;15.744;2023-07-30T02:50:35;24.40;;;0.80;;
2772;SDS011;1394;47.044;15.744;2023-07-30T02:53:02;24.37;;;0.80;;
2772;SDS011;1394;47.044;15.744;2023-07-30T02:55:29;25.10;;;0.87;;
2772;SDS011;1394;47.044;15.744;2023-07-30T02:57:57;24.23;;;0.90;;
2772;SDS011;1394;47.044;15.744;2023-07-30T03:00:24;26.50;;;1.07;;
2772;SDS011;1394;47.044;15.744;2023-07-30T03:02:52;24.47;;;1.13;;
2772;SDS011;1394;47.044;15.744;2023-07-30T03:05:20;24.57;;;1.10;;
2772;SDS011;1394;47.044;15.744;2023-07-30T03:07:48;24.53;;;0.90;;
2772;SDS011;1394;47.044;15.744;2023-07-30T03:10:16;24.47;;;1.00;;
2772;SDS011;1394;47.044;15.744;2023-07-30T03:12:43;24.30;;;0.77;;
2772;SDS011;1394;47.044;15.744;2023-07-30T03:15:11;24.40;;;0.90;;
2772;SDS011;1394;47.044;15.744;2023-07-30T03:17:38;24.47;;;0.93;;
2772;SDS011;1394;47.044;15.744;2023-07-30T03:20:06;24.30;;;0.77;;
2772;SDS011;1394;47.044;15.744;2023-07-30T03:22:35;24.50;;;0.90;;
2772;SDS011;1394;47.044;15.744;2023-07-30T03:25:02;25.90;;;1.07;;
2772;SDS011;1394;47.044;15.744;2023-07-30T03:27:30;24.57;;;0.93;;
2772;SDS011;1394;47.044;15.744;2023-07-30T03:29:57;24.70;;;1.03;;
2772;SDS011;1394;47.044;15.744;2023-07-30T03:32:27;24.80;;;1.10;;
2772;SDS011;1394;47.044;15.744;2023-07-30T03:35:10;24.20;;;0.90;;
2772;SDS011;1394;47.044;15.744;2023-07-30T03:37:39;24.50;;;1.00;;
2772;SDS011;1394;47.044;15.744;2023-07-30T03:40:08;24.60;;;1.13;;
2772;SDS011;1394;47.044;15.744;2023-07-30T03:42:37;24.60;;;1.13;;
2772;SDS011;1394;47.044;15.744;2023-07-30T03:45:04;24.87;;;1.03;;
2772;SDS011;1394;47.044;15.744;2023-07-30T03:47:32;24.60;;;1.13;;
2772;SDS011;1394;47.044;15.744;2023-07-30T03:50:00;24.53;;;1.10;;
2772;SDS011;1394;47.044;15.744;2023-07-30T03:52:27;24.77;;;1.00;;
2772;SDS011;1394;47.044;15.744;2023-07-30T03:54:57;25.00;;;1.20;;
2772;SDS011;1394;47.044;15.744;2023-07-30T03:57:24;26.40;;;0.93;;
2772;SDS011;1394;47.044;15.744;2023-07-30T03:59:51;24.67;;;0.97;;
2772;SDS011;1394;47.044;15.744;2023-07-30T04:02:19;25.80;;;0.90;;
2772;SDS011;1394;47.044;15.744;2023-07-30T04:04:46;24.50;;;0.90;;
2772;SDS011;1394;47.044;15.744;2023-07-30T04:07:20;24.60;;;0.90;;
2772;SDS011;1394;47.044;15.744;2023-07-30T04:13:08;24.93;;;0.90;;
2772;SDS011;1394;47.044;15.744;2023-07-30T04:16:17;25.47;;;1.20;;
2772;SDS011;1394;47.044;15.744;2023-07-30T04:18:44;24.80;;;0.90;;
2772;SDS011;1394;47.044;15.744;2023-07-30T04:21:13;24.20;;;0.80;;
2772;SDS011;1394;47.044;15.744;2023-07-30T04:23:42;24.67;;;0.90;;
2772;SDS011;1394;47.044;15.744;2023-07-30T04:26:09;24.20;;;0.80;;
2772;SDS011;1394;47.044;15.744;2023-07-30T04:28:38;25.00;;;0.90;;
2772;SDS011;1394;47.044;15.744;2023-07-30T04:31:08;26.10;;;1.00;;
2772;SDS011;1394;47.044;15.744;2023-07-30T04:33:35;24.33;;;0.90;;
2772;SDS011;1394;47.044;15.744;2023-07-30T04:36:03;25.90;;;0.90;;
2772;SDS011;1394;47.044;15.744;2023-07-30T04:38:32;24.27;;;0.80;;
2772;SDS011;1394;47.044;15.744;2023-07-30T04:40:59;24.77;;;0.90;;
2772;SDS011;1394;47.044;15.744;2023-07-30T04:43:28;24.77;;;0.90;;
2772;SDS011;1394;47.044;15.744;2023-07-30T04:46:05;24.70;;;1.10;;
2772;SDS011;1394;47.044;15.744;2023-07-30T04:48:46;24.50;;;1.10;;
2772;SDS011;1394;47.044;15.744;2023-07-30T04:51:16;24.10;;;0.70;;
2772;SDS011;1394;47.044;15.744;2023-07-30T04:53:49;24.63;;;0.90;;
2772;SDS011;1394;47.044;15.744;2023-07-30T04:56:32;24.40;;;0.83;;
2772;SDS011;1394;47.044;15.744;2023-07-30T04:59:24;24.20;;;0.83;;
2772;SDS011;1394;47.044;15.744;2023-07-30T05:01:56;24.50;;;1.03;;
2772;SDS011;1394;47.044;15.744;2023-07-30T05:04:23;24.20;;;0.87;;
2772;SDS011;1394;47.044;15.744;2023-07-30T05:06:52;24.50;;;1.00;;
2772;SDS011;1394;47.044;15.744;2023-07-30T05:09:19;24.17;;;0.80;;
2772;SDS011;1394;47.044;15.744;2023-07-30T05:11:46;24.50;;;1.00;;
2772;SDS011;1394;47.044;15.744;2023-07-30T05:14:13;24.30;;;0.90;;
2772;SDS011;1394;47.044;15.744;2023-07-30T05:16:41;24.30;;;0.97;;
2772;SDS011;1394;47.044;15.744;2023-07-30T05:19:10;24.30;;;0.80;;
2772;SDS011;1394;47.044;15.744;2023-07-30T05:21:38;25.10;;;0.93;;
2772;SDS011;1394;47.044;15.744;2023-07-30T05:24:06;24.43;;;0.90;;
2772;SDS011;1394;47.044;15.744;2023-07-30T05:26:34;24.33;;;0.80;;
2772;SDS011;1394;47.044;15.744;2023-07-30T05:29:02;24.17;;;0.90;;
2772;SDS011;1394;47.044;15.744;2023-07-30T05:31:30;24.73;;;0.80;;
2772;SDS011;1394;47.044;15.744;2023-07-30T05:33:58;24.47;;;0.90;;
2772;SDS011;1394;47.044;15.744;2023-07-30T05:36:27;26.10;;;0.90;;
2772;SDS011;1394;47.044;15.744;2023-07-30T05:39:04;24.20;;;0.87;;
2772;SDS011;1394;47.044;15.744;2023-07-30T05:41:40;25.07;;;1.03;;
2772;SDS011;1394;47.044;15.744;2023-07-30T05:44:10;24.10;;;0.90;;
2772;SDS011;1394;47.044;15.744;2023-07-30T05:46:50;24.10;;;1.00;;
2772;SDS011;1394;47.044;15.744;2023-07-30T05:49:36;24.10;;;0.77;;
2772;SDS011;1394;47.044;15.744;2023-07-30T05:52:05;24.87;;;0.90;;
2772;SDS011;1394;47.044;15.744;2023-07-30T05:54:32;24.47;;;0.90;;
2772;SDS011;1394;47.044;15.744;2023-07-30T05:57:00;24.37;;;0.83;;
2772;SDS011;1394;47.044;15.744;2023-07-30T05:59:29;24.20;;;1.00;;
2772;SDS011;1394;47.044;15.744;2023-07-30T06:02:01;24.30;;;0.97;;
2772;SDS011;1394;47.044;15.744;2023-07-30T06:04:29;24.30;;;0.97;;
2772;SDS011;1394;47.044;15.744;2023-07-30T06:06:58;25.17;;;1.20;;
2772;SDS011;1394;47.044;15.744;2023-07-30T06:09:30;24.47;;;0.90;;
2772;SDS011;1394;47.044;15.744;2023-07-30T06:11:59;24.47;;;0.80;;
2772;SDS011;1394;47.044;15.744;2023-07-30T06:14:27;24.93;;;0.80;;
2772;SDS011;1394;47.044;15.744;2023-07-30T06:16:55;24.50;;;1.07;;
2772;SDS011;1394;47.044;15.744;2023-07-30T06:19:26;24.63;;;0.90;;
2772;SDS011;1394;47.044;15.744;2023-07-30T06:21:53;24.10;;;0.90;;
2772;SDS011;1394;47.044;15.744;2023-07-30T06:24:20;24.97;;;1.00;;
2772;SDS011;1394;47.044;15.744;2023-07-30T06:26:55;24.20;;;1.00;;
2772;SDS011;1394;47.044;15.744;2023-07-30T06:29:23;25.60;;;0.77;;
2772;SDS011;1394;47.044;15.744;2023-07-30T06:31:51;24.50;;;1.20;;
2772;SDS011;1394;47.044;15.744;2023-07-30T06:34:19;24.50;;;0.90;;
2772;SDS011;1394;47.044;15.744;2023-07-30T06:36:46;24.10;;;0.90;;
2772;SDS011;1394;47.044;15.744;2023-07-30T06:39:13;24.20;;;0.80;;
2772;SDS011;1394;47.044;15.744;2023-07-30T06:41:41;24.20;;;1.00;;
2772;SDS011;1394;47.044;15.744;2023-07-30T06:44:10;24.63;;;0.90;;
2772;SDS011;1394;47.044;15.744;2023-07-30T06:46:41;24.63;;;1.23;;
2772;SDS011;1394;47.044;15.744;2023-07-30T06:49:09;24.10;;;0.93;;
2772;SDS011;1394;47.044;15.744;2023-07-30T06:51:36;24.13;;;0.93;;
2772;SDS011;1394;47.044;15.744;2023-07-30T06:54:04;24.67;;;1.10;;
2772;SDS011;1394;47.044;15.744;2023-07-30T06:56:33;24.33;;;1.03;;
2772;SDS011;1394;47.044;15.744;2023-07-30T06:59:01;24.30;;;1.00;;
2772;SDS011;1394;47.044;15.744;2023-07-30T07:01:35;24.77;;;1.20;;
2772;SDS011;1394;47.044;15.744;2023-07-30T07:04:29;24.47;;;1.00;;
2772;SDS011;1394;47.044;15.744;2023-07-30T07:07:09;24.30;;;1.20;;
2772;SDS011;1394;47.044;15.744;2023-07-30T07:09:36;24.70;;;1.10;;
2772;SDS011;1394;47.044;15.744;2023-07-30T07:12:04;24.50;;;1.00;;
2772;SDS011;1394;47.044;15.744;2023-07-30T07:14:31;24.30;;;1.00;;
2772;SDS011;1394;47.044;15.744;2023-07-30T07:17:01;24.17;;;1.00;;
2772;SDS011;1394;47.044;15.744;2023-07-30T07:19:31;24.27;;;1.10;;
2772;SDS011;1394;47.044;15.744;2023-07-30T07:22:01;24.17;;;0.90;;
2772;SDS011;1394;47.044;15.744;2023-07-30T07:24:33;24.73;;;1.00;;
2772;SDS011;1394;47.044;15.744;2023-07-30T07:27:02;24.43;;;0.90;;
2772;SDS011;1394;47.044;15.744;2023-07-30T07:29:31;24.07;;;0.87;;
2772;SDS011;1394;47.044;15.744;2023-07-30T07:32:02;24.90;;;0.93;;
2772;SDS011;1394;47.044;15.744;2023-07-30T07:34:32;24.20;;;0.90;;
2772;SDS011;1394;47.044;15.744;2023-07-30T07:37:01;24.30;;;1.10;;
2772;SDS011;1394;47.044;15.744;2023-07-30T07:39:29;25.20;;;1.00;;
2772;SDS011;1394;47.044;15.744;2023-07-30T07:41:56;24.30;;;0.90;;
2772;SDS011;1394;47.044;15.744;2023-07-30T07:44:24;24.27;;;1.03;;
2772;SDS011;1394;47.044;15.744;2023-07-30T07:46:52;24.10;;;0.90;;
2772;SDS011;1394;47.044;15.744;2023-07-30T07:49:22;24.20;;;0.80;;
2772;SDS011;1394;47.044;15.744;2023-07-30T07:51:51;24.67;;;1.27;;
2772;SDS011;1394;47.044;15.744;2023-07-30T07:54:19;25.03;;;1.10;;
2772;SDS011;1394;47.044;15.744;2023-07-30T07:56:47;24.13;;;1.10;;
2772;SDS011;1394;47.044;15.744;2023-07-30T07:59:14;24.70;;;0.97;;
2772;SDS011;1394;47.044;15.744;2023-07-30T08:01:42;24.20;;;1.10;;
2772;SDS011;1394;47.044;15.744;2023-07-30T08:04:10;24.20;;;0.90;;
2772;SDS011;1394;47.044;15.744;2023-07-30T08:06:39;24.80;;;1.00;;
2772;SDS011;1394;47.044;15.744;2023-07-30T08:09:06;24.47;;;0.90;;
2772;SDS011;1394;47.044;15.744;2023-07-30T08:11:36;24.93;;;1.00;;
2772;SDS011;1394;47.044;15.744;2023-07-30T08:14:03;24.20;;;0.90;;
2772;SDS011;1394;47.044;15.744;2023-07-30T08:16:31;24.17;;;0.83;;
2772;SDS011;1394;47.044;15.744;2023-07-30T08:19:01;24.40;;;1.33;;
2772;SDS011;1394;47.044;15.744;2023-07-30T08:21:31;24.57;;;0.90;;
2772;SDS011;1394;47.044;15.744;2023-07-30T08:24:02;24.73;;;1.20;;
2772;SDS011;1394;47.044;15.744;2023-07-30T08:26:34;24.50;;;0.90;;
2772;SDS011;1394;47.044;15.744;2023-07-30T08:29:01;24.20;;;0.80;;
2772;SDS011;1394;47.044;15.744;2023-07-30T08:31:31;24.40;;;1.10;;
2772;SDS011;1394;47.044;15.744;2023-07-30T08:34:01;24.70;;;1.00;;
2772;SDS011;1394;47.044;15.744;2023-07-30T08:36:30;24.37;;;1.00;;
2772;SDS011;1394;47.044;15.744;2023-07-30T08:38:57;26.60;;;1.00;;
2772;SDS011;1394;47.044;15.744;2023-07-30T08:41:26;24.30;;;0.80;;
2772;SDS011;1394;47.044;15.744;2023-07-30T08:43:54;24.60;;;1.00;;
2772;SDS011;1394;47.044;15.744;2023-07-30T08:46:22;24.50;;;0.83;;
2772;SDS011;1394;47.044;15.744;2023-07-30T08:48:51;24.30;;;0.87;;
2772;SDS011;1394;47.044;15.744;2023-07-30T08:51:22;24.40;;;0.97;;
2772;SDS011;1394;47.044;15.744;2023-07-30T08:53:51;24.60;;;0.97;;
2772;SDS011;1394;47.044;15.744;2023-07-30T08:56:21;24.90;;;1.00;;
2772;SDS011;1394;47.044;15.744;2023-07-30T08:58:56;24.27;;;0.90;;
2772;SDS011;1394;47.044;15.744;2023-07-30T09:01:24;24.40;;;0.90;;
2772;SDS011;1394;47.044;15.744;2023-07-30T09:03:55;24.63;;;0.80;;
2772;SDS011;1394;47.044;15.744;2023-07-30T09:06:25;24.87;;;0.90;;
2772;SDS011;1394;47.044;15.744;2023-07-30T09:08:52;24.70;;;0.90;;
2772;SDS011;1394;47.044;15.744;2023-07-30T09:11:24;24.60;;;0.90;;
2772;SDS011;1394;47.044;15.744;2023-07-30T09:13:55;24.27;;;0.77;;
2772;SDS011;1394;47.044;15.744;2023-07-30T09:16:24;24.50;;;1.07;;
2772;SDS011;1394;47.044;15.744;2023-07-30T09:18:52;24.50;;;0.80;;
2772;SDS011;1394;47.044;15.744;2023-07-30T09:24:07;24.37;;;0.87;;
2772;SDS011;1394;47.044;15.744;2023-07-30T09:26:41;24.50;;;1.07;;
2772;SDS011;1394;47.044;15.744;2023-07-30T09:29:13;24.57;;;0.90;;
2772;SDS011;1394;47.044;15.744;2023-07-30T09:31:47;24.40;;;1.10;;
2772;SDS011;1394;47.044;15.744;2023-07-30T09:34:17;25.10;;;1.10;;
2772;SDS011;1394;47.044;15.744;2023-07-30T09:36:46;24.50;;;1.10;;
2772;SDS011;1394;47.044;15.744;2023-07-30T09:39:15;24.40;;;0.90;;
2772;SDS011;1394;47.044;15.744;2023-07-30T09:41:48;24.50;;;0.90;;
2772;SDS011;1394;47.044;15.744;2023-07-30T09:44:17;24.40;;;0.90;;
2772;SDS011;1394;47.044;15.744;2023-07-30T09:46:46;24.30;;;1.00;;
2772;SDS011;1394;47.044;15.744;2023-07-30T09:49:15;24.20;;;0.60;;
2772;SDS011;1394;47.044;15.744;2023-07-30T09:51:43;24.30;;;0.80;;
2772;SDS011;1394;47.044;15.744;2023-07-30T09:54:16;24.10;;;0.80;;
2772;SDS011;1394;47.044;15.744;2023-07-30T09:56:44;24.73;;;0.90;;
2772;SDS011;1394;47.044;15.744;2023-07-30T09:59:11;24.40;;;0.70;;
2772;SDS011;1394;47.044;15.744;2023-07-30T10:01:42;24.30;;;0.80;;
2772;SDS011;1394;47.044;15.744;2023-07-30T10:04:12;24.47;;;0.60;;
2772;SDS011;1394;47.044;15.744;2023-07-30T10:06:41;24.37;;;0.80;;
2772;SDS011;1394;47.044;15.744;2023-07-30T10:09:12;24.30;;;0.70;;
2772;SDS011;1394;47.044;15.744;2023-07-30T10:11:41;24.20;;;0.70;;
2772;SDS011;1394;47.044;15.744;2023-07-30T10:14:12;24.30;;;0.77;;
2772;SDS011;1394;47.044;15.744;2023-07-30T10:16:53;24.67;;;0.70;;
2772;SDS011;1394;47.044;15.744;2023-07-30T10:19:23;24.93;;;0.80;;
2772;SDS011;1394;47.044;15.744;2023-07-30T10:21:57;24.20;;;0.70;;
2772;SDS011;1394;47.044;15.744;2023-07-30T10:24:26;24.30;;;0.70;;
2772;SDS011;1394;47.044;15.744;2023-07-30T10:26:53;24.10;;;0.70;;
2772;SDS011;1394;47.044;15.744;2023-07-30T10:29:23;24.20;;;0.67;;
2772;SDS011;1394;47.044;15.744;2023-07-30T10:31:54;24.23;;;0.80;;
2772;SDS011;1394;47.044;15.744;2023-07-30T10:34:25;24.20;;;0.80;;
2772;SDS011;1394;47.044;15.744;2023-07-30T10:36:56;24.20;;;0.70;;
2772;SDS011;1394;47.044;15.744;2023-07-30T10:39:26;24.40;;;0.80;;
2772;SDS011;1394;47.044;15.744;2023-07-30T10:41:54;24.10;;;0.60;;
2772;SDS011;1394;47.044;15.744;2023-07-30T10:44:24;24.00;;;0.63;;
2772;SDS011;1394;47.044;15.744;2023-07-30T10:46:55;24.10;;;0.70;;
2772;SDS011;1394;47.044;15.744;2023-07-30T10:49:24;24.00;;;0.63;;
2772;SDS011;1394;47.044;15.744;2023-07-30T10:51:52;24.07;;;0.60;;
2772;SDS011;1394;47.044;15.744;2023-07-30T10:54:23;23.90;;;0.57;;
2772;SDS011;1394;47.044;15.744;2023-07-30T10:56:52;24.00;;;0.60;;
2772;SDS011;1394;47.044;15.744;2023-07-30T10:59:22;24.10;;;0.60;;
2772;SDS011;1394;47.044;15.744;2023-07-30T11:01:58;24.10;;;0.63;;
2772;SDS011;1394;47.044;15.744;2023-07-30T11:04:28;23.90;;;0.63;;
2772;SDS011;1394;47.044;15.744;2023-07-30T11:06:58;24.00;;;0.80;;
2772;SDS011;1394;47.044;15.744;2023-07-30T11:09:28;24.27;;;0.70;;
2772;SDS011;1394;47.044;15.744;2023-07-30T11:11:55;24.10;;;0.70;;
2772;SDS011;1394;47.044;15.744;2023-07-30T11:14:23;24.17;;;0.60;;
2772;SDS011;1394;47.044;15.744;2023-07-30T11:16:53;24.30;;;0.80;;
2772;SDS011;1394;47.044;15.744;2023-07-30T11:19:27;24.00;;;0.70;;
2772;SDS011;1394;47.044;15.744;2023-07-30T11:21:56;23.90;;;0.60;;
2772;SDS011;1394;47.044;15.744;2023-07-30T11:24:33;23.90;;;0.60;;
2772;SDS011;1394;47.044;15.744;2023-07-30T11:27:07;23.90;;;0.60;;
2772;SDS011;1394;47.044;15.744;2023-07-30T11:29:36;23.90;;;0.70;;
2772;SDS011;1394;47.044;15.744;2023-07-30T11:32:04;24.00;;;0.67;;
2772;SDS011;1394;47.044;15.744;2023-07-30T11:34:34;24.10;;;0.70;;
2772;SDS011;1394;47.044;15.744;2023-07-30T11:37:06;24.10;;;0.67;;
2772;SDS011;1394;47.044;15.744;2023-07-30T11:39:36;23.90;;;0.70;;
2772;SDS011;1394;47.044;15.744;2023-07-30T11:42:03;24.00;;;0.60;;
2772;SDS011;1394;47.044;15.744;2023-07-30T11:44:32;23.90;;;0.70;;
2772;SDS011;1394;47.044;15.744;2023-07-30T11:46:59;23.97;;;0.60;;
2772;SDS011;1394;47.044;15.744;2023-07-30T11:49:29;24.07;;;0.60;;
2772;SDS011;1394;47.044;15.744;2023-07-30T11:52:08;23.80;;;0.60;;
2772;SDS011;1394;47.044;15.744;2023-07-30T11:54:37;23.80;;;0.50;;
2772;SDS011;1394;47.044;15.744;2023-07-30T11:57:05;24.00;;;0.60;;
2772;SDS011;1394;47.044;15.744;2023-07-30T11:59:36;24.03;;;0.70;;
2772;SDS011;1394;47.044;15.744;2023-07-30T12:02:07;24.10;;;0.70;;
2772;SDS011;1394;47.044;15.744;2023-07-30T12:07:28;24.03;;;0.70;;
2772;SDS011;1394;47.044;15.744;2023-07-30T12:10:09;24.07;;;0.70;;
2772;SDS011;1394;47.044;15.744;2023-07-30T12:12:36;24.10;;;0.60;;
2772;SDS011;1394;47.044;15.744;2023-07-30T12:15:09;23.97;;;0.60;;
2772;SDS011;1394;47.044;15.744;2023-07-30T12:17:37;24.97;;;0.53;;
2772;SDS011;1394;47.044;15.744;2023-07-30T12:20:10;24.00;;;0.63;;
2772;SDS011;1394;47.044;15.744;2023-07-30T12:22:39;24.00;;;0.57;;
2772;SDS011;1394;47.044;15.744;2023-07-30T12:25:09;24.00;;;0.67;;
2772;SDS011;1394;47.044;15.744;2023-07-30T12:27:38;23.80;;;0.60;;
2772;SDS011;1394;47.044;15.744;2023-07-30T12:30:07;23.90;;;0.60;;
2772;SDS011;1394;47.044;15.744;2023-07-30T12:32:34;23.97;;;0.60;;
2772;SDS011;1394;47.044;15.744;2023-07-30T12:35:06;23.80;;;0.50;;
2772;SDS011;1394;47.044;15.744;2023-07-30T12:37:33;24.00;;;0.70;;
2772;SDS011;1394;47.044;15.744;2023-07-30T12:40:08;23.80;;;0.50;;
2772;SDS011;1394;47.044;15.744;2023-07-30T12:42:37;24.57;;;0.83;;
2772;SDS011;1394;47.044;15.744;2023-07-30T12:45:04;23.90;;;0.60;;
2772;SDS011;1394;47.044;15.744;2023-07-30T12:47:32;23.97;;;0.70;;
2772;SDS011;1394;47.044;15.744;2023-07-30T12:50:02;23.93;;;0.70;;
2772;SDS011;1394;47.044;15.744;2023-07-30T12:52:30;23.97;;;0.70;;
2772;SDS011;1394;47.044;15.744;2023-07-30T12:54:58;24.03;;;0.70;;
2772;SDS011;1394;47.044;15.744;2023-07-30T12:57:27;24.10;;;0.70;;
2772;SDS011;1394;47.044;15.744;2023-07-30T12:59:55;23.80;;;0.60;;
2772;SDS011;1394;47.044;15.744;2023-07-30T13:02:25;23.90;;;0.70;;
2772;SDS011;1394;47.044;15.744;2023-07-30T13:04:53;23.80;;;0.63;;
2772;SDS011;1394;47.044;15.744;2023-07-30T13:07:23;23.80;;;0.60;;
2772;SDS011;1394;47.044;15.744;2023-07-30T13:10:01;23.80;;;0.60;;
2772;SDS011;1394;47.044;15.744;2023-07-30T13:12:30;23.80;;;0.70;;
2772;SDS011;1394;47.044;15.744;2023-07-30T13:14:58;23.80;;;0.70;;
2772;SDS011;1394;47.044;15.744;2023-07-30T13:17:25;23.60;;;0.67;;
2772;SDS011;1394;47.044;15.744;2023-07-30T13:19:54;23.90;;;0.70;;
2772;SDS011;1394;47.044;15.744;2023-07-30T13:22:23;23.80;;;0.60;;
2772;SDS011;1394;47.044;15.744;2023-07-30T13:24:51;23.60;;;0.70;;
2772;SDS011;1394;47.044;15.744;2023-07-30T13:27:18;23.67;;;0.60;;
2772;SDS011;1394;47.044;15.744;2023-07-30T13:29:50;23.70;;;0.60;;
2772;SDS011;1394;47.044;15.744;2023-07-30T13:32:17;23.60;;;0.60;;
2772;SDS011;1394;47.044;15.744;2023-07-30T13:34:44;23.93;;;0.70;;
2772;SDS011;1394;47.044;15.744;2023-07-30T13:37:15;23.70;;;0.63;;
2772;SDS011;1394;47.044;15.744;2023-07-30T13:39:43;24.47;;;0.60;;
2772;SDS011;1394;47.044;15.744;2023-07-30T13:42:11;23.60;;;0.60;;
2772;SDS011;1394;47.044;15.744;2023-07-30T13:44:38;23.50;;;0.60;;
2772;SDS011;1394;47.044;15.744;2023-07-30T13:47:09;23.70;;;0.60;;
2772;SDS011;1394;47.044;15.744;2023-07-30T13:49:38;23.70;;;0.77;;
2772;SDS011;1394;47.044;15.744;2023-07-30T13:52:09;23.83;;;0.80;;
2772;SDS011;1394;47.044;15.744;2023-07-30T13:54:38;23.60;;;0.70;;
2772;SDS011;1394;47.044;15.744;2023-07-30T13:57:11;23.50;;;0.60;;
2772;SDS011;1394;47.044;15.744;2023-07-30T13:59:38;23.60;;;0.57;;
2772;SDS011;1394;47.044;15.744;2023-07-30T14:02:10;23.60;;;0.83;;
2772;SDS011;1394;47.044;15.744;2023-07-30T14:04:38;23.60;;;0.50;;
2772;SDS011;1394;47.044;15.744;2023-07-30T14:07:05;24.30;;;0.70;;
2772;SDS011;1394;47.044;15.744;2023-07-30T14:09:35;23.60;;;0.50;;
2772;SDS011;1394;47.044;15.744;2023-07-30T14:12:05;23.70;;;0.63;;
2772;SDS011;1394;47.044;15.744;2023-07-30T14:14:33;23.90;;;0.77;;
2772;SDS011;1394;47.044;15.744;2023-07-30T14:17:00;23.57;;;0.50;;
2772;SDS011;1394;47.044;15.744;2023-07-30T14:19:33;23.80;;;0.70;;
2772;SDS011;1394;47.044;15.744;2023-07-30T14:22:00;23.80;;;0.50;;
2772;SDS011;1394;47.044;15.744;2023-07-30T14:24:28;23.87;;;0.73;;
2772;SDS011;1394;47.044;15.744;2023-07-30T14:26:55;23.60;;;0.70;;
2772;SDS011;1394;47.044;15.744;2023-07-30T14:29:23;23.90;;;0.80;;
2772;SDS011;1394;47.044;15.744;2023-07-30T14:31:51;23.77;;;0.70;;
2772;SDS011;1394;47.044;15.744;2023-07-30T14:34:19;23.70;;;0.67;;
2772;SDS011;1394;47.044;15.744;2023-07-30T14:36:50;23.60;;;0.63;;
2772;SDS011;1394;47.044;15.744;2023-07-30T14:39:19;25.30;;;0.70;;
2772;SDS011;1394;47.044;15.744;2023-07-30T14:41:50;23.80;;;0.53;;
2772;SDS011;1394;47.044;15.744;2023-07-30T14:44:19;23.57;;;0.60;;
2772;SDS011;1394;47.044;15.744;2023-07-30T14:46:47;23.80;;;0.70;;
2772;SDS011;1394;47.044;15.744;2023-07-30T14:49:15;23.90;;;0.90;;
2772;SDS011;1394;47.044;15.744;2023-07-30T14:51:45;24.20;;;0.80;;
2772;SDS011;1394;47.044;15.744;2023-07-30T14:54:20;24.50;;;0.70;;
2772;SDS011;1394;47.044;15.744;2023-07-30T14:56:50;26.10;;;1.13;;
2772;SDS011;1394;47.044;15.744;2023-07-30T14:59:17;24.50;;;0.80;;
2772;SDS011;1394;47.044;15.744;2023-07-30T15:01:50;24.77;;;0.93;;
2772;SDS011;1394;47.044;15.744;2023-07-30T15:04:20;24.90;;;0.70;;
2772;SDS011;1394;47.044;15.744;2023-07-30T15:06:49;24.30;;;0.70;;
2772;SDS011;1394;47.044;15.744;2023-07-30T15:09:22;25.47;;;0.80;;
2772;SDS011;1394;47.044;15.744;2023-07-30T15:11:49;24.30;;;0.63;;
2772;SDS011;1394;47.044;15.744;2023-07-30T15:14:17;25.70;;;0.70;;
2772;SDS011;1394;47.044;15.744;2023-07-30T15:16:44;24.50;;;0.70;;